Terminal Aerodrome Forecast
Issued by NWS

Home | Current Version | Previous Version | Text Only | Print | Product List | Glossary On
Versions: 1 2 3 4 5 6 7 8 9 10 11 12 13 14 15 16 17 18
000
FTUS43 KSGF 220200 AAA
TAFBBG
TAF AMD
KBBG 220251Z 2203/2224 14011KT 2SM BR OVC002 WS020/19040KT
     FM221600 16010KT 3SM -SHRA BR OVC007
     FM221900 17009KT 5SM -SHRA BR OVC010=

USA.gov is the U.S. government's official web portal to all federal, state and local government web resources and services.